createdAt,value
2023-03-30T00:01:12.230Z,75.16
2023-03-30T00:03:44.148Z,75.19
2023-03-30T00:06:14.820Z,75.06
2023-03-30T00:08:43.187Z,75.06
2023-03-30T00:11:13.774Z,74.92
2023-03-30T00:13:44.762Z,74.82
2023-03-30T00:16:13.519Z,75.19
2023-03-30T00:18:41.760Z,75.13
2023-03-30T00:21:18.430Z,75.17
2023-03-30T00:23:48.052Z,75.00
2023-03-30T00:26:16.829Z,74.76
2023-03-30T00:28:45.500Z,74.72
2023-03-30T00:31:14.796Z,74.66
2023-03-30T00:33:46.870Z,74.90
2023-03-30T00:36:17.687Z,74.96
2023-03-30T00:38:48.610Z,74.92
2023-03-30T00:41:17.905Z,74.84
2023-03-30T00:43:59.041Z,74.80
2023-03-30T00:46:27.982Z,74.83
2023-03-30T00:48:58.927Z,74.87
2023-03-30T00:51:29.033Z,74.82
2023-03-30T00:54:04.623Z,74.94
2023-03-30T00:56:33.406Z,74.75
2023-03-30T00:59:01.430Z,74.95
2023-03-30T01:01:39.324Z,74.76
2023-03-30T01:04:09.972Z,74.54
2023-03-30T01:06:40.548Z,74.65
2023-03-30T01:09:09.029Z,74.80
2023-03-30T01:11:44.860Z,74.94
2023-03-30T01:14:13.224Z,74.85
2023-03-30T01:16:50.630Z,74.61
2023-03-30T01:19:43.916Z,74.55
2023-03-30T01:22:52.832Z,74.66
2023-03-30T01:25:42.377Z,74.84
2023-03-30T01:28:30.144Z,74.78
2023-03-30T01:34:03.921Z,74.92
2023-03-30T01:36:36.641Z,74.62
2023-03-30T01:39:10.830Z,74.37
2023-03-30T01:41:52.485Z,74.63
2023-03-30T01:44:31.507Z,74.86
2023-03-30T01:47:06.450Z,74.88
2023-03-30T01:49:39.709Z,74.94
2023-03-30T01:52:11.229Z,74.76
2023-03-30T01:54:51.522Z,74.49
2023-03-30T01:57:34.709Z,74.25
2023-03-30T02:00:14.933Z,74.34
2023-03-30T02:02:56.293Z,74.67
2023-03-30T02:05:25.054Z,74.63
2023-03-30T02:08:02.225Z,74.62
2023-03-30T02:10:32.621Z,74.45
2023-03-30T02:13:01.238Z,74.26
2023-03-30T02:15:49.168Z,74.21
2023-03-30T02:18:19.596Z,74.36
2023-03-30T02:20:49.728Z,74.35
2023-03-30T02:23:20.640Z,74.46
2023-03-30T02:25:49.583Z,74.51
2023-03-30T02:28:25.244Z,74.56
2023-03-30T02:30:53.878Z,74.44
2023-03-30T02:33:29.029Z,74.22
2023-03-30T02:36:02.851Z,74.41
2023-03-30T02:39:05.149Z,74.46
2023-03-30T02:42:12.707Z,74.53
2023-03-30T02:45:19.414Z,74.49
2023-03-30T02:48:26.088Z,74.55
2023-03-30T02:51:18.934Z,74.09
2023-03-30T02:54:41.934Z,74.39
2023-03-30T02:57:27.361Z,74.53
2023-03-30T03:00:01.718Z,74.50
2023-03-30T03:02:38.234Z,74.63
2023-03-30T03:05:15.717Z,74.66
2023-03-30T03:07:54.030Z,74.43
2023-03-30T03:10:22.372Z,74.40
2023-03-30T03:12:55.803Z,74.49
2023-03-30T03:15:24.430Z,74.57
2023-03-30T03:18:07.883Z,74.53
2023-03-30T03:20:37.629Z,74.62
2023-03-30T03:23:08.055Z,74.53
2023-03-30T03:25:44.639Z,74.45
2023-03-30T03:28:15.887Z,74.39
2023-03-30T03:30:49.396Z,74.47
2023-03-30T03:33:23.059Z,74.43
2023-03-30T03:36:02.947Z,74.46
2023-03-30T03:38:32.295Z,74.44
2023-03-30T03:41:01.105Z,74.49
2023-03-30T03:43:30.120Z,74.24
2023-03-30T03:45:59.590Z,74.12
2023-03-30T03:48:27.971Z,74.31
2023-03-30T03:51:01.460Z,74.31
2023-03-30T03:53:33.278Z,74.47
2023-03-30T03:56:04.132Z,74.56
2023-03-30T03:58:33.485Z,74.59
2023-03-30T04:01:01.895Z,74.45
2023-03-30T04:03:32.497Z,74.37
2023-03-30T04:06:01.332Z,74.17
2023-03-30T04:08:30.685Z,74.45
2023-03-30T04:11:11.937Z,74.25
2023-03-30T04:13:59.814Z,74.18
2023-03-30T04:16:46.710Z,74.11
2023-03-30T04:19:46.460Z,74.18
2023-03-30T04:22:26.548Z,73.82
2023-03-30T04:25:05.698Z,73.73
2023-03-30T04:27:52.968Z,73.63
2023-03-30T04:30:33.555Z,73.63
2023-03-30T04:33:22.172Z,73.40
2023-03-30T04:36:17.680Z,73.51
2023-03-30T04:39:07.139Z,73.11
2023-03-30T04:41:54.334Z,72.80
2023-03-30T04:44:36.700Z,72.73
2023-03-30T04:47:31.729Z,72.81
2023-03-30T04:50:23.506Z,72.50
2023-03-30T04:53:10.920Z,72.49
2023-03-30T04:55:59.205Z,72.08
2023-03-30T04:58:42.417Z,71.73
2023-03-30T05:01:28.652Z,71.53
2023-03-30T05:04:05.780Z,71.38
2023-03-30T05:06:44.500Z,71.28
2023-03-30T05:09:29.057Z,71.05
2023-03-30T05:12:16.828Z,70.63
2023-03-30T05:15:04.632Z,70.20
2023-03-30T05:17:45.776Z,70.13
2023-03-30T05:20:46.217Z,70.12
2023-03-30T05:23:33.900Z,69.26
2023-03-30T05:26:28.644Z,69.43
2023-03-30T05:29:10.483Z,68.97
2023-03-30T05:31:54.148Z,69.11
2023-03-30T05:34:49.168Z,68.95
2023-03-30T05:37:38.257Z,68.26
2023-03-30T05:40:24.817Z,68.15
2023-03-30T05:43:11.655Z,68.23
2023-03-30T05:45:59.073Z,68.24
2023-03-30T05:48:34.547Z,68.29
2023-03-30T05:51:28.182Z,67.99
2023-03-30T05:54:12.793Z,67.66
2023-03-30T05:56:47.106Z,67.53
2023-03-30T05:59:29.009Z,67.61
2023-03-30T06:02:27.641Z,67.23
2023-03-30T06:05:01.741Z,67.15
2023-03-30T06:07:30.829Z,66.76
2023-03-30T06:10:01.649Z,66.66
2023-03-30T06:12:31.962Z,66.54
2023-03-30T06:15:03.314Z,66.48
2023-03-30T06:17:49.959Z,66.00
2023-03-30T06:20:21.985Z,66.04
2023-03-30T06:22:52.990Z,65.83
2023-03-30T06:25:24.733Z,65.85
2023-03-30T06:27:53.385Z,65.77
2023-03-30T06:30:22.155Z,65.75
2023-03-30T06:32:53.742Z,64.87
2023-03-30T06:35:50.020Z,64.66
2023-03-30T06:38:20.689Z,64.29
2023-03-30T06:40:49.127Z,64.23
2023-03-30T06:43:21.293Z,64.41
2023-03-30T06:46:08.491Z,64.51
2023-03-30T06:48:36.916Z,64.20
2023-03-30T06:51:31.233Z,63.72
2023-03-30T06:54:00.209Z,63.78
2023-03-30T06:56:28.177Z,63.27
2023-03-30T06:59:15.629Z,62.59
2023-03-30T07:02:22.688Z,62.86
2023-03-30T07:04:52.879Z,63.16
2023-03-30T07:07:26.462Z,62.56
2023-03-30T07:09:54.541Z,62.28
2023-03-30T07:12:25.585Z,62.27
2023-03-30T07:14:55.094Z,62.04
2023-03-30T07:17:26.827Z,62.32
2023-03-30T07:19:59.027Z,61.37
2023-03-30T07:22:28.181Z,61.50
2023-03-30T07:24:57.109Z,60.83
2023-03-30T07:27:27.284Z,61.18
2023-03-30T07:30:04.616Z,60.99
2023-03-30T07:32:41.869Z,61.26
2023-03-30T07:35:10.596Z,61.24
2023-03-30T07:37:40.193Z,61.37
2023-03-30T07:40:13.935Z,60.71
2023-03-30T07:42:43.682Z,60.64
2023-03-30T07:45:14.203Z,60.45
2023-03-30T07:47:47.213Z,60.00
2023-03-30T07:50:17.198Z,60.59
2023-03-30T07:52:46.251Z,60.51
2023-03-30T07:55:15.336Z,60.21
2023-03-30T07:57:50.080Z,60.19
2023-03-30T08:00:19.361Z,60.67
2023-03-30T08:03:08.511Z,60.89
2023-03-30T08:05:39.121Z,61.32
2023-03-30T08:08:16.309Z,61.34
2023-03-30T08:10:46.100Z,61.03
2023-03-30T08:13:15.755Z,60.90
2023-03-30T08:15:45.858Z,61.52
2023-03-30T08:18:14.723Z,62.05
2023-03-30T08:20:45.625Z,61.90
2023-03-30T08:23:14.151Z,61.72
2023-03-30T08:25:43.733Z,61.62
2023-03-30T08:28:14.902Z,61.76
2023-03-30T08:30:43.113Z,62.00
2023-03-30T08:33:13.669Z,61.92
2023-03-30T08:35:47.756Z,62.44
2023-03-30T08:38:17.579Z,61.69
2023-03-30T08:40:48.131Z,60.90
2023-03-30T08:43:30.636Z,61.03
2023-03-30T08:46:05.046Z,61.34
2023-03-30T08:48:38.027Z,60.37
2023-03-30T08:51:13.023Z,60.01
2023-03-30T08:53:42.077Z,60.71
2023-03-30T08:56:18.098Z,60.91
2023-03-30T08:59:24.201Z,60.80
2023-03-30T09:02:00.983Z,61.11
2023-03-30T09:04:41.502Z,61.50
2023-03-30T09:07:26.605Z,62.34
2023-03-30T09:09:55.982Z,60.96
2023-03-30T09:13:00.417Z,61.75
2023-03-30T09:15:36.940Z,61.76
2023-03-30T09:18:07.245Z,60.28
2023-03-30T09:20:37.560Z,63.76
2023-03-30T09:23:14.109Z,68.96
2023-03-30T09:26:01.116Z,74.06
2023-03-30T09:29:00.223Z,73.84
2023-03-30T09:31:46.763Z,64.26
2023-03-30T09:34:25.153Z,69.62
2023-03-30T09:37:13.286Z,75.51
2023-03-30T09:39:41.635Z,70.94
2023-03-30T09:42:34.448Z,67.51
2023-03-30T09:45:42.044Z,63.35
2023-03-30T09:48:10.214Z,66.32
2023-03-30T09:50:46.909Z,61.88
2023-03-30T09:53:29.557Z,57.58
2023-03-30T09:56:19.788Z,57.66
2023-03-30T09:58:48.460Z,54.98
2023-03-30T10:01:18.695Z,58.42
2023-03-30T10:04:12.868Z,58.36
2023-03-30T10:06:49.238Z,59.50
2023-03-30T10:09:18.479Z,50.02
2023-03-30T10:11:48.979Z,47.34
2023-03-30T10:14:32.043Z,46.10
2023-03-30T10:17:07.068Z,44.42
2023-03-30T10:19:37.997Z,48.51
2023-03-30T10:22:17.906Z,46.31
2023-03-30T10:24:55.465Z,41.73
2023-03-30T10:27:34.332Z,45.82
2023-03-30T10:30:12.311Z,42.69
2023-03-30T10:32:44.972Z,40.63
2023-03-30T10:35:19.973Z,40.50
2023-03-30T10:37:48.327Z,40.10
2023-03-30T10:40:41.071Z,38.46
2023-03-30T10:43:23.641Z,41.46
2023-03-30T10:46:01.475Z,41.11
2023-03-30T10:49:05.352Z,42.23
2023-03-30T10:51:39.835Z,40.29
2023-03-30T10:54:32.569Z,39.18
2023-03-30T10:57:14.917Z,38.59
2023-03-30T10:59:57.971Z,36.13
2023-03-30T11:02:53.903Z,36.14
2023-03-30T11:05:35.989Z,37.36
2023-03-30T11:08:16.319Z,38.25
2023-03-30T11:10:48.557Z,36.05
2023-03-30T11:13:28.052Z,35.30
2023-03-30T11:16:03.449Z,34.89
2023-03-30T11:18:38.932Z,35.52
2023-03-30T11:21:31.851Z,35.27
2023-03-30T11:24:18.922Z,34.33
2023-03-30T11:26:56.381Z,31.55
2023-03-30T11:29:33.820Z,30.48
2023-03-30T11:32:30.280Z,32.20
2023-03-30T11:35:09.623Z,30.55
2023-03-30T11:37:51.354Z,30.75
2023-03-30T11:40:26.984Z,32.15
2023-03-30T11:42:55.470Z,30.82
2023-03-30T11:45:43.501Z,30.88
2023-03-30T11:48:25.942Z,30.49
2023-03-30T11:51:09.477Z,30.99
2023-03-30T11:53:52.451Z,30.51
2023-03-30T11:56:28.392Z,29.21
2023-03-30T11:59:04.939Z,27.70
2023-03-30T12:02:04.107Z,27.83
2023-03-30T12:04:45.331Z,27.96
2023-03-30T12:07:46.267Z,28.53
2023-03-30T12:10:19.130Z,27.25
2023-03-30T12:13:02.644Z,28.06
2023-03-30T12:15:36.800Z,27.45
2023-03-30T12:18:29.690Z,28.08
2023-03-30T12:21:18.312Z,26.80
2023-03-30T12:24:20.214Z,27.02
2023-03-30T12:27:02.202Z,27.72
2023-03-30T12:30:02.536Z,27.97
2023-03-30T12:32:33.669Z,27.54
2023-03-30T12:35:01.857Z,28.00
2023-03-30T12:37:42.328Z,26.66
2023-03-30T12:40:31.904Z,26.38
2023-03-30T12:43:14.486Z,26.07
2023-03-30T12:46:20.408Z,26.10
2023-03-30T12:49:12.003Z,26.84
2023-03-30T12:51:50.279Z,26.70
2023-03-30T12:54:25.244Z,26.75
2023-03-30T12:57:07.818Z,27.07
2023-03-30T13:00:09.312Z,26.57
2023-03-30T13:03:04.830Z,25.94
2023-03-30T13:05:35.842Z,25.65
2023-03-30T13:08:09.397Z,25.53
2023-03-30T13:10:42.395Z,25.72
2023-03-30T13:13:19.284Z,26.22
2023-03-30T13:15:54.714Z,26.35
2023-03-30T13:18:35.163Z,27.79
2023-03-30T13:21:17.728Z,29.31
2023-03-30T13:23:59.549Z,30.54
2023-03-30T13:26:35.149Z,31.53
2023-03-30T13:29:11.745Z,32.49
2023-03-30T13:31:52.591Z,32.98
2023-03-30T13:34:38.573Z,33.82
2023-03-30T13:37:09.871Z,34.42
2023-03-30T13:39:44.961Z,34.96
2023-03-30T13:42:32.257Z,35.50
2023-03-30T13:45:41.961Z,36.41
2023-03-30T13:48:19.948Z,36.80
2023-03-30T13:51:45.426Z,37.19
2023-03-30T13:54:19.534Z,37.85
2023-03-30T13:56:49.173Z,38.34
2023-03-30T13:59:18.233Z,38.74
2023-03-30T14:01:48.501Z,39.01
2023-03-30T14:04:16.274Z,38.99
2023-03-30T14:06:48.636Z,39.17
2023-03-30T14:09:27.136Z,39.55
2023-03-30T14:11:58.358Z,39.82
2023-03-30T14:14:29.468Z,39.93
2023-03-30T14:16:57.401Z,40.68
2023-03-30T14:19:46.162Z,41.11
2023-03-30T14:22:18.546Z,41.11
2023-03-30T14:25:02.135Z,41.10
2023-03-30T14:27:38.009Z,41.39
2023-03-30T14:30:18.507Z,41.34
2023-03-30T14:32:45.627Z,41.21
2023-03-30T14:35:18.795Z,41.65
2023-03-30T14:37:51.866Z,41.91
2023-03-30T14:40:19.173Z,42.26
2023-03-30T14:42:46.659Z,42.56
2023-03-30T14:45:18.413Z,42.52
2023-03-30T14:47:48.852Z,42.69
2023-03-30T14:50:15.492Z,42.63
2023-03-30T14:52:43.922Z,43.00
2023-03-30T14:55:16.770Z,43.06
2023-03-30T14:57:46.895Z,43.06
2023-03-30T15:00:20.017Z,43.05
2023-03-30T15:02:59.394Z,43.02
2023-03-30T15:05:32.863Z,43.31
2023-03-30T15:08:00.036Z,43.97
2023-03-30T15:10:49.265Z,43.96
2023-03-30T15:13:32.984Z,43.73
2023-03-30T15:16:00.692Z,44.07
2023-03-30T15:18:29.831Z,44.27
2023-03-30T15:20:57.057Z,44.90
2023-03-30T15:23:24.743Z,44.52
2023-03-30T15:25:58.280Z,44.54
2023-03-30T15:28:25.344Z,44.86
2023-03-30T15:30:52.754Z,44.75
2023-03-30T15:33:41.499Z,44.98
2023-03-30T15:36:20.077Z,45.16
2023-03-30T15:38:55.362Z,44.96
2023-03-30T15:41:24.008Z,45.09
2023-03-30T15:44:21.100Z,45.54
2023-03-30T15:46:48.850Z,45.81
2023-03-30T15:49:17.938Z,46.24
2023-03-30T15:52:01.348Z,46.23
2023-03-30T15:54:45.609Z,46.35
2023-03-30T15:57:28.472Z,46.94
2023-03-30T16:00:04.409Z,46.91
2023-03-30T16:02:38.911Z,46.87
2023-03-30T16:05:08.261Z,47.00
2023-03-30T16:07:36.879Z,47.50
2023-03-30T16:10:05.699Z,47.25
2023-03-30T16:12:34.749Z,47.40
2023-03-30T16:15:02.146Z,47.26
2023-03-30T16:17:29.431Z,47.62
2023-03-30T16:19:57.844Z,47.34
2023-03-30T16:22:24.649Z,47.87
2023-03-30T16:24:52.720Z,48.03
2023-03-30T16:27:19.630Z,48.31
2023-03-30T16:29:47.374Z,48.43
2023-03-30T16:32:15.126Z,48.65
2023-03-30T16:34:43.074Z,48.75
2023-03-30T16:37:13.546Z,49.64
2023-03-30T16:39:40.423Z,49.94
2023-03-30T16:42:10.132Z,50.36
2023-03-30T16:44:38.940Z,50.41
2023-03-30T16:47:07.127Z,50.29
2023-03-30T16:49:34.851Z,50.52
2023-03-30T16:52:02.289Z,50.64
2023-03-30T16:54:32.412Z,50.72
2023-03-30T16:57:01.550Z,51.41
2023-03-30T16:59:33.686Z,51.25
2023-03-30T17:02:02.027Z,51.12
2023-03-30T17:04:29.611Z,51.47
2023-03-30T17:06:57.147Z,51.65
2023-03-30T17:09:24.130Z,52.02
2023-03-30T17:11:51.888Z,52.40
2023-03-30T17:14:20.403Z,52.10
2023-03-30T17:16:47.138Z,51.88
2023-03-30T17:19:15.710Z,52.56
2023-03-30T17:21:45.225Z,53.33
2023-03-30T17:24:11.953Z,52.77
2023-03-30T17:26:41.098Z,52.95
2023-03-30T17:29:08.966Z,53.52
2023-03-30T17:31:37.525Z,54.20
2023-03-30T17:34:06.770Z,54.31
2023-03-30T17:36:33.546Z,54.89
2023-03-30T17:39:04.184Z,55.12
2023-03-30T17:41:33.209Z,55.49
2023-03-30T17:44:00.240Z,56.24
2023-03-30T17:46:27.884Z,56.18
2023-03-30T17:48:54.792Z,56.29
2023-03-30T17:51:22.845Z,56.99
2023-03-30T17:53:50.520Z,57.23
2023-03-30T17:56:24.425Z,57.42
2023-03-30T17:58:52.645Z,57.75
2023-03-30T18:01:20.284Z,57.88
2023-03-30T18:03:48.105Z,57.56
2023-03-30T18:06:15.117Z,57.98
2023-03-30T18:08:43.370Z,58.03
2023-03-30T18:11:10.902Z,58.08
2023-03-30T18:13:38.525Z,58.04
2023-03-30T18:16:05.642Z,57.72
2023-03-30T18:18:32.672Z,57.90
2023-03-30T18:21:02.234Z,58.05
2023-03-30T18:23:35.043Z,58.52
2023-03-30T18:26:08.344Z,58.86
2023-03-30T18:28:39.800Z,59.22
2023-03-30T18:31:08.286Z,59.14
2023-03-30T18:33:35.767Z,59.28
2023-03-30T18:36:05.473Z,59.21
2023-03-30T18:38:32.849Z,59.24
2023-03-30T18:41:00.949Z,59.30
2023-03-30T18:43:28.624Z,59.14
2023-03-30T18:45:58.856Z,59.47
2023-03-30T18:48:29.593Z,59.82
2023-03-30T18:50:57.025Z,59.84
2023-03-30T18:53:27.269Z,60.11
2023-03-30T18:55:58.043Z,60.12
2023-03-30T18:58:29.845Z,59.87
2023-03-30T19:01:00.339Z,59.76
2023-03-30T19:03:28.042Z,60.20
2023-03-30T19:05:55.459Z,60.65
2023-03-30T19:08:23.288Z,60.88
2023-03-30T19:10:51.814Z,60.99
2023-03-30T19:13:19.761Z,60.87
2023-03-30T19:15:49.069Z,60.84
2023-03-30T19:18:17.263Z,60.92
2023-03-30T19:20:43.922Z,60.92
2023-03-30T19:23:15.071Z,60.80
2023-03-30T19:25:43.256Z,60.90
2023-03-30T19:28:15.339Z,61.07
2023-03-30T19:30:42.214Z,60.80
2023-03-30T19:33:11.447Z,61.18
2023-03-30T19:35:42.332Z,60.54
2023-03-30T19:38:09.255Z,60.45
2023-03-30T19:40:37.513Z,60.07
2023-03-30T19:43:04.241Z,59.85
2023-03-30T19:45:31.223Z,59.28
2023-03-30T19:47:58.712Z,59.50
2023-03-30T19:50:26.072Z,59.82
2023-03-30T19:52:54.393Z,58.63
2023-03-30T19:55:21.593Z,57.53
2023-03-30T19:57:48.395Z,57.29
2023-03-30T20:00:16.777Z,56.93
2023-03-30T20:02:58.737Z,56.77
2023-03-30T20:05:25.654Z,56.15
2023-03-30T20:07:52.278Z,56.12
2023-03-30T20:10:20.911Z,56.47
2023-03-30T20:12:48.841Z,56.60
2023-03-30T20:15:19.271Z,56.29
2023-03-30T20:17:48.184Z,56.63
2023-03-30T20:20:22.248Z,56.89
2023-03-30T20:22:53.473Z,56.28
2023-03-30T20:25:21.141Z,56.14
2023-03-30T20:27:52.416Z,56.23
2023-03-30T20:30:19.891Z,56.29
2023-03-30T20:32:59.745Z,56.08
2023-03-30T20:35:31.600Z,57.30
2023-03-30T20:37:58.558Z,56.56
2023-03-30T20:40:26.682Z,55.84
2023-03-30T20:43:01.896Z,55.78
2023-03-30T20:45:29.856Z,55.90
2023-03-30T20:47:56.730Z,55.69
2023-03-30T20:50:23.388Z,55.51
2023-03-30T20:52:52.528Z,55.95
2023-03-30T20:55:20.476Z,56.30
2023-03-30T20:57:47.266Z,55.75
2023-03-30T21:00:14.980Z,55.61
2023-03-30T21:02:42.324Z,55.66
2023-03-30T21:05:09.223Z,55.91
2023-03-30T21:07:46.367Z,55.56
2023-03-30T21:10:15.399Z,55.59
2023-03-30T21:12:42.788Z,55.66
2023-03-30T21:15:14.539Z,55.68
2023-03-30T21:17:41.905Z,55.60
2023-03-30T21:20:10.634Z,55.61
2023-03-30T21:22:41.749Z,55.59
2023-03-30T21:25:09.319Z,55.33
2023-03-30T21:27:36.109Z,55.20
2023-03-30T21:30:03.284Z,55.35
2023-03-30T21:32:32.886Z,55.21
2023-03-30T21:34:59.874Z,55.19
2023-03-30T21:37:29.026Z,55.26
2023-03-30T21:39:55.770Z,55.62
2023-03-30T21:42:22.443Z,55.68
2023-03-30T21:44:49.103Z,55.34
2023-03-30T21:47:15.998Z,55.56
2023-03-30T21:49:42.650Z,55.43
2023-03-30T21:52:09.317Z,55.64
2023-03-30T21:54:37.635Z,55.48
2023-03-30T21:57:05.496Z,54.99
2023-03-30T21:59:32.532Z,54.96
2023-03-30T22:01:59.301Z,55.58
2023-03-30T22:04:26.345Z,55.51
2023-03-30T22:06:53.451Z,55.76
2023-03-30T22:09:20.387Z,55.56
2023-03-30T22:11:54.851Z,55.60
2023-03-30T22:14:21.972Z,55.80
2023-03-30T22:16:48.656Z,56.01
2023-03-30T22:19:24.022Z,56.25
2023-03-30T22:21:52.353Z,55.80
2023-03-30T22:24:19.675Z,55.65
2023-03-30T22:26:48.864Z,55.40
2023-03-30T22:29:16.740Z,55.28
2023-03-30T22:31:44.925Z,55.38
2023-03-30T22:34:12.695Z,55.36
2023-03-30T22:36:40.424Z,55.51
2023-03-30T22:39:14.134Z,55.26
2023-03-30T22:41:41.139Z,55.11
2023-03-30T22:44:08.613Z,55.00
2023-03-30T22:46:36.971Z,55.25
2023-03-30T22:49:03.965Z,55.23
2023-03-30T22:51:37.459Z,55.27
2023-03-30T22:54:04.656Z,55.53
2023-03-30T22:56:31.421Z,55.87
2023-03-30T22:58:59.180Z,55.55
2023-03-30T23:01:28.269Z,55.86
2023-03-30T23:03:58.960Z,55.81
2023-03-30T23:06:26.122Z,56.04
2023-03-30T23:08:53.898Z,56.01
2023-03-30T23:11:21.040Z,56.14
2023-03-30T23:13:49.415Z,56.19
2023-03-30T23:16:16.021Z,56.40
2023-03-30T23:18:44.922Z,56.40
2023-03-30T23:21:14.146Z,56.80
2023-03-30T23:23:41.478Z,56.45
2023-03-30T23:26:10.098Z,56.46
2023-03-30T23:28:38.672Z,56.42
2023-03-30T23:31:07.442Z,56.49
2023-03-30T23:33:34.458Z,56.29
2023-03-30T23:36:01.403Z,56.36
2023-03-30T23:38:28.215Z,55.98
2023-03-30T23:40:58.754Z,55.74
2023-03-30T23:43:25.531Z,55.61
2023-03-30T23:45:52.768Z,55.30
2023-03-30T23:48:19.756Z,55.28
2023-03-30T23:50:46.663Z,55.06
2023-03-30T23:53:13.370Z,55.42
2023-03-30T23:55:40.648Z,55.18
2023-03-30T23:58:07.348Z,54.94
